Time;durP1;ratioP1;P1;durP2;ratioP2;P2;SDS_P1;SDS_P2;PMS_P1;PMS_P2;Temp;Humidity;BMP_temperature;BMP_pressure;BME280_temperature;BME280_humidity;BME280_pressure;Samples;Min_cycle;Max_cycle;Signal;HPM_P1;HPM_P2
2023/01/12 00:01:48;;;;;;;;;;;;;;;-144.47;100.00;61586.06;4923166;28;19922;-80
2023/01/12 00:04:13;;;;;;;;;;;;;;;-144.47;100.00;61586.06;4921210;29;19942;-80
2023/01/12 00:06:39;;;;;;;;;;;;;;;-144.47;100.00;61586.06;4918746;29;19919;-79
2023/01/12 00:09:07;;;;;;;;;;;;;;;-144.47;100.00;61586.06;4922271;29;19998;-79
2023/01/12 00:11:33;;;;;;;;;;;;;;;-144.47;100.00;61586.06;4924239;28;19919;-80
2023/01/12 00:13:59;;;;;;;;;;;;;;;-144.47;100.00;61586.06;4921923;29;20025;-80
2023/01/12 00:16:34;;;;;;;;;;;;;;;-144.47;100.00;61586.06;4918418;29;19927;-80
2023/01/12 00:19:02;;;;;;;;;;;;;;;-144.47;100.00;61586.06;4922518;29;19926;-80
2023/01/12 00:21:27;;;;;;;;;;;;;;;-144.47;100.00;61586.06;4919993;28;19926;-79
2023/01/12 00:23:53;;;;;;;;;;;;;;;-144.47;100.00;61586.06;4925447;28;19919;-79
2023/01/12 00:26:18;;;;;;;;;;;;;;;-144.47;100.00;61586.06;4242667;28;10000774;-88
2023/01/12 00:28:43;;;;;;;;;;;;;;;-144.47;100.00;61586.06;4923377;28;19961;-87
2023/01/12 00:31:09;;;;;;;;;;;;;;;-144.47;100.00;61586.06;4921735;28;19919;-87
2023/01/12 00:33:35;;;;;;;;;;;;;;;-144.47;100.00;61586.06;4925386;29;20382;-87
2023/01/12 00:36:05;;;;;;;;;;;;;;;-144.47;100.00;61586.06;4928116;29;19922;-88
2023/01/12 00:38:30;;;;;;;;;;;;;;;-144.47;100.00;61586.06;4925835;29;20315;-86
2023/01/12 00:40:56;;;;;;;;;;;;;;;-144.47;100.00;61586.06;4923554;28;19966;-87
2023/01/12 00:46:05;;;;;;;;;;;;;;;-144.47;100.00;61586.06;4925372;29;20326;-84
2023/01/12 00:48:30;;;;;;;;;;;;;;;-144.47;100.00;61586.06;4924073;29;20416;-86
2023/01/12 00:50:55;;;;;;;;;;;;;;;-144.47;100.00;61586.06;4921740;29;20999;-84
2023/01/12 00:53:21;;;;;;;;;;;;;;;-144.47;100.00;61586.06;4924250;29;19919;-87
2023/01/12 00:55:46;;;;;;;;;;;;;;;-144.47;100.00;61586.06;4923617;29;19918;-84
2023/01/12 00:58:11;;;;;;;;;;;;;;;-144.47;100.00;61586.06;4922599;28;20322;-84
2023/01/12 01:00:37;;;;;;;;;;;;;;;-144.47;100.00;61586.06;4924784;29;19961;-85
2023/01/12 01:03:02;;;;;;;;;;;;;;;-144.47;100.00;61586.06;4926553;28;19915;-87
2023/01/12 01:05:28;;;;;;;;;;;;;;;-144.47;100.00;61586.06;4922378;29;20002;-90
2023/01/12 01:07:54;;;;;;;;;;;;;;;-144.47;100.00;61586.06;4924528;29;19919;-89
2023/01/12 01:10:19;;;;;;;;;;;;;;;-144.47;100.00;61586.06;4923509;29;19942;-88
2023/01/12 01:12:44;;;;;;;;;;;;;;;-144.47;100.00;61586.06;4925671;28;20291;-88
2023/01/12 01:15:10;;;;;;;;;;;;;;;-144.47;100.00;61586.06;4926034;29;20014;-86
2023/01/12 01:17:35;;;;;;;;;;;;;;;-144.47;100.00;61586.06;4933213;29;19982;-89
2023/01/12 01:20:00;;;;;;;;;;;;;;;-144.47;100.00;61586.06;4922133;29;19923;-88
2023/01/12 01:22:26;;;;;;;;;;;;;;;-144.47;100.00;61586.06;4923693;28;19922;-89
2023/01/12 01:24:51;;;;;;;;;;;;;;;-144.47;100.00;61586.06;4923218;29;20105;-85
2023/01/12 01:27:17;;;;;;;;;;;;;;;-144.47;100.00;61586.06;4923593;28;20365;-87
2023/01/12 01:29:42;;;;;;;;;;;;;;;-144.47;100.00;61586.06;4923597;29;19962;-86
2023/01/12 01:32:07;;;;;;;;;;;;;;;-144.47;100.00;61586.06;4921673;29;20275;-86
2023/01/12 01:34:33;;;;;;;;;;;;;;;-144.47;100.00;61586.06;4925492;29;19926;-87
2023/01/12 01:36:58;;;;;;;;;;;;;;;-144.47;100.00;61586.06;4925436;29;19958;-87
2023/01/12 01:39:23;;;;;;;;;;;;;;;-144.47;100.00;61586.06;4924082;29;19919;-88
2023/01/12 01:41:49;;;;;;;;;;;;;;;-144.47;100.00;61586.06;4925312;28;19918;-88
2023/01/12 01:44:29;;;;;;;;;;;;;;;-144.47;100.00;61586.06;4926461;28;19962;-89
2023/01/12 01:46:59;;;;;;;;;;;;;;;-144.47;100.00;61586.06;4923936;29;20693;-88
2023/01/12 01:49:33;;;;;;;;;;;;;;;-144.47;100.00;61586.06;4922315;29;20439;-89
2023/01/12 01:52:01;;;;;;;;;;;;;;;-144.47;100.00;61586.06;4924393;29;19919;-89
2023/01/12 01:54:29;;;;;;;;;;;;;;;-144.47;100.00;61586.06;4920663;29;20642;-89
2023/01/12 01:56:56;;;;;;;;;;;;;;;-144.47;100.00;61586.06;4923828;29;19977;-89
2023/01/12 01:59:23;;;;;;;;;;;;;;;-144.47;100.00;61586.06;4919451;29;20329;-84
2023/01/12 02:01:49;;;;;;;;;;;;;;;-144.47;100.00;61586.06;4922721;29;20068;-86
2023/01/12 02:04:15;;;;;;;;;;;;;;;-144.47;100.00;61586.06;4924880;28;19959;-85
2023/01/12 02:06:41;;;;;;;;;;;;;;;-144.47;100.00;61586.06;4920838;29;19930;-85
2023/01/12 02:09:26;;;;;;;;;;;;;;;-144.47;100.00;61586.06;4921565;29;20012;-85
2023/01/12 02:17:32;;;;;;;;;;;;;;;-144.47;100.00;61586.06;4922082;29;19923;-86
2023/01/12 02:19:57;;;;;;;;;;;;;;;-144.47;100.00;61586.06;4923794;29;20017;-86
2023/01/12 02:22:42;;;;;;;;;;;;;;;-144.47;100.00;61586.06;4921980;29;20005;-86
2023/01/12 02:25:18;;;;;;;;;;;;;;;-144.47;100.00;61586.06;4924229;29;19919;-85
2023/01/12 02:27:59;;;;;;;;;;;;;;;-144.47;100.00;61586.06;4920752;29;20337;-85
2023/01/12 02:30:45;;;;;;;;;;;;;;;-144.47;100.00;61586.06;4926508;29;19919;-86
2023/01/12 02:33:18;;;;;;;;;;;;;;;-144.47;100.00;61586.06;4926546;28;19919;-85
2023/01/12 02:35:52;;;;;;;;;;;;;;;-144.47;100.00;61586.06;4925473;29;19992;-85
2023/01/12 02:38:25;;;;;;;;;;;;;;;-144.47;100.00;61586.06;4924615;29;19919;-84
2023/01/12 02:40:58;;;;;;;;;;;;;;;-144.47;100.00;61586.06;4919961;28;19969;-87
2023/01/12 02:43:27;;;;;;;;;;;;;;;-144.47;100.00;61586.06;4921581;29;19921;-86
2023/01/12 02:46:00;;;;;;;;;;;;;;;-144.47;100.00;61586.06;4922505;29;20310;-85
2023/01/12 02:48:57;;;;;;;;;;;;;;;-144.47;100.00;61586.06;4920185;28;19915;-86
2023/01/12 02:51:32;;;;;;;;;;;;;;;-144.47;100.00;61586.06;4970916;28;19919;-86
2023/01/12 02:54:06;;;;;;;;;;;;;;;-144.47;100.00;61586.06;4923094;29;19940;-86
2023/01/12 02:56:42;;;;;;;;;;;;;;;-144.47;100.00;61586.06;4926284;29;20294;-86
2023/01/12 02:59:10;;;;;;;;;;;;;;;-144.47;100.00;61586.06;4920930;29;19926;-88
2023/01/12 03:01:36;;;;;;;;;;;;;;;-144.47;100.00;61586.06;4946974;28;19924;-86
2023/01/12 03:04:03;;;;;;;;;;;;;;;-144.47;100.00;61586.06;4924030;28;20256;-87
2023/01/12 03:06:41;;;;;;;;;;;;;;;-144.47;100.00;61586.06;4925387;28;19926;-89
2023/01/12 03:09:07;;;;;;;31.13;20.02;;;;;;;-144.47;100.00;61586.06;4934752;28;19926;-90
2023/01/12 03:11:37;;;;;;;31.85;20.92;;;;;;;-144.47;100.00;61586.06;4923008;29;20039;-92
2023/01/12 03:14:03;;;;;;;30.07;20.37;;;;;;;-144.47;100.00;61586.06;4923535;28;20067;-88
2023/01/12 03:16:33;;;;;;;29.13;20.10;;;;;;;-144.47;100.00;61586.06;4921807;28;20382;-90
2023/01/12 03:19:31;;;;;;;33.55;19.73;;;;;;;-144.47;100.00;61586.06;4920462;29;20399;-90
2023/01/12 03:22:00;;;;;;;30.77;19.60;;;;;;;-144.47;100.00;61586.06;4930942;28;20496;-90
2023/01/12 03:24:38;;;;;;;32.22;20.98;;;;;;;-144.47;100.00;61586.06;4922592;29;20395;-91
2023/01/12 03:27:13;;;;;;;28.92;20.90;;;;;;;-144.47;100.00;61586.06;4924165;29;20028;-92
2023/01/12 03:29:44;;;;;;;35.35;22.35;;;;;;;-144.47;100.00;61586.06;4923938;29;20036;-92
2023/01/12 03:32:09;;;;;;;35.45;20.70;;;;;;;-144.47;100.00;61586.06;4920853;29;20055;-91
2023/01/12 03:34:36;;;;;;;31.10;20.65;;;;;;;-144.47;100.00;61586.06;4923521;29;20380;-90
2023/01/12 03:37:11;;;;;;;26.33;20.15;;;;;;;-144.47;100.00;61586.06;4923118;29;20107;-87
2023/01/12 03:39:49;;;;;;;28.23;20.25;;;;;;;-144.47;100.00;61586.06;4923351;29;20092;-88
2023/01/12 03:42:47;;;;;;;31.17;20.60;;;;;;;-144.47;100.00;61586.06;4924120;28;20530;-89
2023/01/12 03:45:25;;;;;;;31.15;20.88;;;;;;;-144.47;100.00;61586.06;4889553;29;20535;-89
2023/01/12 03:47:55;;;;;;;30.80;21.73;;;;;;;-144.47;100.00;61586.06;4923837;29;20119;-89
2023/01/12 03:50:36;;;;;;;30.23;21.17;;;;;;;-144.47;100.00;61586.06;4922169;29;20468;-90
2023/01/12 03:53:05;;;;;;;30.55;20.83;;;;;;;-144.47;100.00;61586.06;4923389;29;20074;-90
2023/01/12 03:55:34;;;;;;;30.45;21.70;;;;;;;-144.47;100.00;61586.06;4933479;28;20040;-90
2023/01/12 03:58:00;;;;;;;32.80;22.15;;;;;;;-144.47;100.00;61586.06;4940599;29;20044;-90
2023/01/12 04:00:26;;;;;;;;;;;;;;;-144.47;100.00;61586.06;4928337;29;20063;-89
2023/01/12 04:03:09;;;;;;;;;;;;;;;-144.47;100.00;61586.06;5000244;28;19971;-90
2023/01/12 04:05:35;;;;;;;;;;;;;;;-144.47;100.00;61586.06;4920340;29;19996;-90
2023/01/12 04:08:00;;;;;;;;;;;;;;;-144.47;100.00;61586.06;4920134;29;19958;-90
2023/01/12 04:10:25;;;;;;;;;;;;;;;-144.47;100.00;61586.06;4923067;28;19933;-89
2023/01/12 04:12:51;;;;;;;;;;;;;;;-144.47;100.00;61586.06;4920939;29;19915;-90
2023/01/12 04:15:16;;;;;;;;;;;;;;;-144.47;100.00;61586.06;4921891;29;20338;-89
2023/01/12 04:17:41;;;;;;;;;;;;;;;-144.47;100.00;61586.06;4922633;29;20282;-88
2023/01/12 04:20:08;;;;;;;;;;;;;;;-144.47;100.00;61586.06;4920414;28;19966;-87
2023/01/12 04:22:42;;;;;;;;;;;;;;;-144.47;100.00;61586.06;4921067;29;20383;-93
2023/01/12 04:25:11;;;;;;;;;;;;;;;-144.47;100.00;61586.06;4919645;29;19977;-91
2023/01/12 04:27:40;;;;;;;;;;;;;;;-144.47;100.00;61586.06;4926682;29;20362;-89
2023/01/12 04:30:05;;;;;;;;;;;;;;;-144.47;100.00;61586.06;4923812;29;20005;-90
2023/01/12 04:32:31;;;;;;;;;;;;;;;-144.47;100.00;61586.06;4930952;28;20401;-90
2023/01/12 04:34:56;;;;;;;;;;;;;;;-144.47;100.00;61586.06;4924483;29;19923;-90
2023/01/12 04:37:21;;;;;;;;;;;;;;;-144.47;100.00;61586.06;4935539;29;19922;-90
2023/01/12 04:39:47;;;;;;;;;;;;;;;-144.47;100.00;61586.06;4937323;29;19919;-90
2023/01/12 04:44:56;;;;;;;;;;;;;;;-144.47;100.00;61586.06;4927185;28;20395;-90
2023/01/12 04:47:22;;;;;;;;;;;;;;;-144.47;100.00;61586.06;4924329;28;19926;-89
2023/01/12 04:49:47;;;;;;;;;;;;;;;-144.47;100.00;61586.06;4924969;29;19919;-91
2023/01/12 04:52:13;;;;;;;;;;;;;;;-144.47;100.00;61586.06;4922712;28;19923;-87
2023/01/12 04:54:39;;;;;;;;;;;;;;;-144.47;100.00;61586.06;4926169;29;19919;-89
2023/01/12 04:57:04;;;;;;;;;;;;;;;-144.47;100.00;61586.06;4926291;29;19950;-89
2023/01/12 04:59:29;;;;;;;;;;;;;;;-144.47;100.00;61586.06;4927702;28;19933;-91
2023/01/12 05:01:55;;;;;;;;;;;;;;;-144.47;100.00;61586.06;4925785;29;20010;-90
2023/01/12 05:04:20;;;;;;;;;;;;;;;-144.47;100.00;61586.06;4924816;29;19922;-90
2023/01/12 05:06:45;;;;;;;;;;;;;;;-144.47;100.00;61586.06;4923240;29;20278;-90
2023/01/12 05:11:54;;;;;;;;;;;;;;;-144.47;100.00;61586.06;4924677;28;20145;-85
2023/01/12 05:14:20;;;;;;;;;;;;;;;-144.47;100.00;61586.06;4928250;29;20362;-89
2023/01/12 05:16:45;;;;;;;;;;;;;;;-144.47;100.00;61586.06;4936001;28;19942;-91
2023/01/12 05:19:10;;;;;;;;;;;;;;;-144.47;100.00;61586.06;4943548;29;19969;-90
2023/01/12 05:21:36;;;;;;;;;;;;;;;-144.47;100.00;61586.06;4926440;29;19973;-90
2023/01/12 05:24:01;;;;;;;;;;;;;;;-144.47;100.00;61586.06;4926255;28;20333;-90
2023/01/12 05:26:26;;;;;;;;;;;;;;;-144.47;100.00;61586.06;4925142;29;20317;-90
2023/01/12 05:28:52;;;;;;;;;;;;;;;-144.47;100.00;61586.06;4924071;29;20377;-91
2023/01/12 05:31:18;;;;;;;;;;;;;;;-144.47;100.00;61586.06;4923686;28;20659;-89
2023/01/12 05:33:43;;;;;;;;;;;;;;;-144.47;100.00;61586.06;4929631;28;19973;-91
2023/01/12 05:36:10;;;;;;;;;;;;;;;-144.47;100.00;61586.06;4924446;28;19922;-91
2023/01/12 05:38:35;;;;;;;;;;;;;;;-144.47;100.00;61586.06;4921889;29;19919;-90
2023/01/12 05:41:02;;;;;;;;;;;;;;;-144.47;100.00;61586.06;4925245;29;19926;-88
2023/01/12 05:46:12;;;;;;;;;;;;;;;-144.47;100.00;61586.06;4925518;29;19926;-93
2023/01/12 05:48:38;;;;;;;;;;;;;;;-144.47;100.00;61586.06;4924089;28;19919;-87
2023/01/12 05:51:04;;;;;;;;;;;;;;;-144.47;100.00;61586.06;4920022;29;19918;-90
2023/01/12 05:53:30;;;;;;;;;;;;;;;-144.47;100.00;61586.06;4922934;29;20283;-88
2023/01/12 05:55:55;;;;;;;;;;;;;;;-144.47;100.00;61586.06;4922616;29;19945;-89
2023/01/12 05:58:21;;;;;;;;;;;;;;;-144.47;100.00;61586.06;4925099;28;19929;-90
2023/01/12 06:00:46;;;;;;;;;;;;;;;-144.47;100.00;61586.06;4923475;28;19925;-87
2023/01/12 06:03:11;;;;;;;;;;;;;;;-144.47;100.00;61586.06;4930390;28;19938;-87
2023/01/12 06:05:36;;;;;;;;;;;;;;;-144.47;100.00;61586.06;4929945;29;19977;-89
2023/01/12 06:08:02;;;;;;;;;;;;;;;-144.47;100.00;61586.06;4929308;28;19933;-89
2023/01/12 06:10:28;;;;;;;;;;;;;;;-144.47;100.00;61586.06;4932252;29;20032;-89
2023/01/12 06:15:37;;;;;;;;;;;;;;;-144.47;100.00;61586.06;4931378;29;20100;-84
2023/01/12 06:18:02;;;;;;;;;;;;;;;-144.47;100.00;61586.06;4930436;29;20410;-83
2023/01/12 06:20:28;;;;;;;;;;;;;;;-144.47;100.00;61586.06;4929761;29;20403;-83
2023/01/12 06:22:53;;;;;;;;;;;;;;;-144.47;100.00;61586.06;4926321;29;19919;-85
2023/01/12 06:25:18;;;;;;;;;;;;;;;-144.47;100.00;61586.06;4928663;29;19918;-84
2023/01/12 06:27:43;;;;;;;;;;;;;;;-144.47;100.00;61586.06;4926620;28;20279;-87
2023/01/12 06:30:09;;;;;;;;;;;;;;;-144.47;100.00;61586.06;4931038;29;19929;-90
2023/01/12 06:32:35;;;;;;;;;;;;;;;-144.47;100.00;61586.06;4922071;29;20017;-89
2023/01/12 06:35:02;;;;;;;;;;;;;;;-144.47;100.00;61586.06;4916106;28;19923;-89
2023/01/12 06:37:27;;;;;;;;;;;;;;;-144.47;100.00;61586.06;4917448;28;19934;-93
2023/01/12 06:39:52;;;;;;;;;;;;;;;-144.47;100.00;61586.06;4927650;29;19931;-89
2023/01/12 06:42:27;;;;;;;;;;;;;;;-144.47;100.00;61586.06;4921767;29;19919;-84
2023/01/12 06:44:52;;;;;;;;;;;;;;;-144.47;100.00;61586.06;4916665;29;20340;-83
2023/01/12 06:47:18;;;;;;;;;;;;;;;-144.47;100.00;61586.06;4918009;29;20495;-87
2023/01/12 06:49:43;;;;;;;;;;;;;;;-144.47;100.00;61586.06;4918665;29;20006;-84
2023/01/12 06:52:08;;;;;;;;;;;;;;;-144.47;100.00;61586.06;4929777;29;19918;-81
2023/01/12 06:54:34;;;;;;;;;;;;;;;-144.47;100.00;61586.06;4925805;28;20021;-81
2023/01/12 06:56:59;;;;;;;;;;;;;;;-144.47;100.00;61586.06;4921958;29;20006;-84
2023/01/12 06:59:24;;;;;;;;;;;;;;;-144.47;100.00;61586.06;4917874;28;19929;-86
2023/01/12 07:01:50;;;;;;;;;;;;;;;-144.47;100.00;61586.06;4921248;28;19923;-88
2023/01/12 07:04:15;;;;;;;;;;;;;;;-144.47;100.00;61586.06;4922796;28;19919;-86
2023/01/12 07:06:40;;;;;;;;;;;;;;;-144.47;100.00;61586.06;4918609;28;20006;-84
2023/01/12 07:09:05;;;;;;;;;;;;;;;-144.47;100.00;61586.06;4926331;28;19949;-82
2023/01/12 07:11:31;;;;;;;;;;;;;;;-144.47;100.00;61586.06;4926720;28;19922;-83
2023/01/12 07:13:56;;;;;;;;;;;;;;;-144.47;100.00;61586.06;4923106;29;20424;-83
2023/01/12 07:16:22;;;;;;;;;;;;;;;-144.47;100.00;61586.06;4916929;28;20418;-78
2023/01/12 07:18:47;;;;;;;;;;;;;;;-144.47;100.00;61586.06;4914087;29;19919;-79
2023/01/12 07:21:15;;;;;;;;;;;;;;;-144.47;100.00;61586.06;4919697;29;20473;-80
2023/01/12 07:23:42;;;;;;;;;;;;;;;-144.47;100.00;61586.06;4914236;28;20684;-78
2023/01/12 07:26:09;;;;;;;;;;;;;;;-144.47;100.00;61586.06;4917862;29;20387;-81
2023/01/12 07:28:35;;;;;;;;;;;;;;;-144.47;100.00;61586.06;4915392;28;19923;-79
2023/01/12 07:31:01;;;;;;;;;;;;;;;-144.47;100.00;61586.06;4937827;29;19968;-78
2023/01/12 07:33:26;;;;;;;;;;;;;;;-144.47;100.00;61586.06;4913810;28;20500;-79
2023/01/12 07:35:53;;;;;;;;;;;;;;;-144.47;100.00;61586.06;4913912;29;19930;-79
2023/01/12 07:38:18;;;;;;;;;;;;;;;-144.47;100.00;61586.06;4931522;28;19965;-84
2023/01/12 07:40:43;;;;;;;;;;;;;;;-144.47;100.00;61586.06;4919084;29;20371;-83
2023/01/12 07:43:10;;;;;;;;;;;;;;;-144.47;100.00;61586.06;4915731;28;19964;-83
2023/01/12 07:45:36;;;;;;;;;;;;;;;-144.47;100.00;61586.06;4926363;28;19973;-81
2023/01/12 07:48:01;;;;;;;;;;;;;;;-144.47;100.00;61586.06;4920301;29;19919;-83
2023/01/12 07:50:27;;;;;;;;;;;;;;;-144.47;100.00;61586.06;4922033;28;20140;-84
2023/01/12 07:52:53;;;;;;;;;;;;;;;-144.47;100.00;61586.06;4919335;29;19978;-84
2023/01/12 07:55:19;;;;;;;37.45;23.25;;;;;;;-144.47;100.00;61586.06;4919714;29;20362;-84
2023/01/12 07:58:06;;;;;;;33.95;22.90;;;;;;;-144.47;100.00;61586.06;4919481;29;20053;-82
2023/01/12 08:00:32;;;;;;;35.75;24.33;;;;;;;-144.47;100.00;61586.06;4906132;29;20412;-80
2023/01/12 08:03:07;;;;;;;32.42;23.63;;;;;;;-144.47;100.00;61586.06;4920459;28;20040;-80
2023/01/12 08:05:34;;;;;;;35.58;22.30;;;;;;;-144.47;100.00;61586.06;4903860;28;20417;-81
2023/01/12 08:08:01;;;;;;;39.07;25.23;;;;;;;-144.47;100.00;61586.06;4909562;29;20055;-81
2023/01/12 08:10:26;;;;;;;35.10;23.25;;;;;;;-144.47;100.00;61586.06;4910404;28;20046;-81
2023/01/12 08:12:52;;;;;;;;;;;;;;;-144.47;100.00;61586.06;4910449;29;20127;-80
2023/01/12 08:15:17;;;;;;;;;;;;;;;-144.47;100.00;61586.06;4905352;29;19920;-80
2023/01/12 08:18:00;;;;;;;36.72;23.77;;;;;;;-144.47;100.00;61586.06;4906857;29;19923;-80
2023/01/12 08:20:31;;;;;;;37.33;24.65;;;;;;;-144.47;100.00;61586.06;4909061;29;20036;-83
2023/01/12 08:23:02;;;;;;;35.78;24.95;;;;;;;-144.47;100.00;61586.06;4910173;29;20048;-81
2023/01/12 08:25:37;;;;;;;34.00;24.23;;;;;;;-144.47;100.00;61586.06;4909623;28;20048;-82
2023/01/12 08:28:08;;;;;;;37.42;24.40;;;;;;;-144.47;100.00;61586.06;4907640;29;20041;-82
2023/01/12 08:30:34;;;;;;;40.55;25.95;;;;;;;-144.47;100.00;61586.06;4910329;29;20028;-83
2023/01/12 08:33:01;;;;;;;39.25;25.45;;;;;;;-144.47;100.00;61586.06;4907587;29;20167;-82
2023/01/12 08:35:27;;;;;;;;;;;;;;;-144.47;100.00;61586.06;4906887;28;20045;-81
2023/01/12 08:37:53;;;;;;;;;;;;;;;-144.47;100.00;61586.06;4919712;28;19986;-82
2023/01/12 08:40:19;;;;;;;39.65;24.38;;;;;;;-144.47;100.00;61586.06;4911295;28;20291;-81
2023/01/12 08:42:45;;;;;;;45.90;25.60;;;;;;;-144.47;100.00;61586.06;4904633;28;20419;-83
2023/01/12 08:45:11;;;;;;;40.22;26.20;;;;;;;-144.47;100.00;61586.06;4906956;29;20028;-81
2023/01/12 08:47:39;;;;;;;38.78;25.48;;;;;;;-144.47;100.00;61586.06;4903783;28;20029;-82
2023/01/12 08:50:06;;;;;;;39.08;26.40;;;;;;;-144.47;100.00;61586.06;4907554;29;20071;-82
2023/01/12 08:52:33;;;;;;;35.30;26.00;;;;;;;-144.47;100.00;61586.06;4911062;28;20032;-81
2023/01/12 08:54:59;;;;;;;36.17;26.60;;;;;;;-144.47;100.00;61586.06;4909890;29;20389;-79
2023/01/12 08:57:25;;;;;;;41.40;26.75;;;;;;;-144.47;100.00;61586.06;4905084;28;20031;-80
2023/01/12 08:59:51;;;;;;;41.33;26.85;;;;;;;-144.47;100.00;61586.06;4906812;29;20108;-80
2023/01/12 09:02:16;;;;;;;37.53;24.50;;;;;;;-144.47;100.00;61586.06;4905278;29;20055;-81
2023/01/12 09:04:42;;;;;;;42.50;26.98;;;;;;;-144.47;100.00;61586.06;4927713;28;20087;-79
2023/01/12 09:07:10;;;;;;;41.25;26.30;;;;;;;-144.47;100.00;61586.06;4904530;29;20083;-80
2023/01/12 09:09:36;;;;;;;38.95;26.15;;;;;;;-144.47;100.00;61586.06;4906927;28;20459;-79
2023/01/12 09:12:01;;;;;;;36.17;25.75;;;;;;;-144.47;100.00;61586.06;4904884;29;20350;-80
2023/01/12 09:14:28;;;;;;;39.20;26.67;;;;;;;-144.47;100.00;61586.06;4908961;28;20100;-81
2023/01/12 09:16:55;;;;;;;36.75;26.05;;;;;;;-144.47;100.00;61586.06;4907593;29;20040;-81
2023/01/12 09:19:21;;;;;;;38.53;26.10;;;;;;;-144.47;100.00;61586.06;4912127;28;20387;-81
2023/01/12 09:21:47;;;;;;;40.13;25.80;;;;;;;-144.47;100.00;61586.06;4908708;29;20072;-81
2023/01/12 09:24:14;;;;;;;40.88;26.30;;;;;;;-144.47;100.00;61586.06;4908629;28;20036;-79
2023/01/12 09:26:42;;;;;;;35.55;25.50;;;;;;;-144.47;100.00;61586.06;4903089;29;20134;-80
2023/01/12 09:29:09;;;;;;;;;;;;;;;-144.47;100.00;61586.06;4910598;29;20226;-78
2023/01/12 09:31:36;;;;;;;;;;;;;;;-144.47;100.00;61586.06;4911534;29;19919;-80
2023/01/12 09:34:01;;;;;;;;;;;;;;;-144.47;100.00;61586.06;4907053;29;19926;-79
2023/01/12 09:36:28;;;;;;;;;;;;;;;-144.47;100.00;61586.06;4910081;29;19970;-79
2023/01/12 09:38:54;;;;;;;;;;;;;;;-144.47;100.00;61586.06;4907437;29;19923;-81
2023/01/12 09:47:33;;;;;;;;;;;;;;;-144.47;100.00;61586.06;4908484;29;20268;-82
2023/01/12 09:49:58;;;;;;;;;;;;;;;-144.47;100.00;61586.06;4907907;29;19977;-80
2023/01/12 09:52:26;;;;;;;;;;;;;;;-144.47;100.00;61586.06;4911428;29;19919;-81
2023/01/12 09:54:52;;;;;;;;;;;;;;;-144.47;100.00;61586.06;4909540;29;20260;-81
2023/01/12 09:57:36;;;;;;;;;;;;;;;-144.47;100.00;61586.06;4912841;28;20013;-81
2023/01/12 10:00:05;;;;;;;;;;;;;;;-144.47;100.00;61586.06;4908053;29;20387;-81
2023/01/12 10:02:39;;;;;;;;;;;;;;;-144.47;100.00;61586.06;4911044;29;19926;-81
2023/01/12 10:05:06;;;;;;;;;;;;;;;-144.47;100.00;61586.06;4913000;28;20306;-79
2023/01/12 10:07:32;;;;;;;;;;;;;;;-144.47;100.00;61586.06;4910196;29;19982;-80
2023/01/12 10:09:58;;;;;;;;;;;;;;;-144.47;100.00;61586.06;4911863;28;20014;-80
2023/01/12 10:12:33;;;;;;;;;;;;;;;-144.47;100.00;61586.06;4911259;28;19966;-80
2023/01/12 10:15:05;;;;;;;;;;;;;;;-144.47;100.00;61586.06;4909268;29;19920;-80
2023/01/12 10:17:43;;;;;;;;;;;;;;;-144.47;100.00;61586.06;4925133;28;19919;-80
2023/01/12 10:20:26;;;;;;;;;;;;;;;-144.47;100.00;61586.06;4906250;29;19965;-82
2023/01/12 10:23:09;;;;;;;;;;;;;;;-144.47;100.00;61586.06;4905907;28;19961;-80
2023/01/12 10:25:35;;;;;;;;;;;;;;;-144.47;100.00;61586.06;4909393;29;19926;-80
2023/01/12 10:28:05;;;;;;;;;;;;;;;-144.47;100.00;61586.06;4912984;29;19923;-81
2023/01/12 10:30:35;;;;;;;;;;;;;;;-144.47;100.00;61586.06;4913687;29;20037;-82
2023/01/12 10:33:10;;;;;;;;;;;;;;;-144.47;100.00;61586.06;4910616;28;19927;-81
2023/01/12 10:35:36;;;;;;;;;;;;;;;-144.47;100.00;61586.06;4905577;29;19919;-82
2023/01/12 10:38:12;;;;;;;;;;;;;;;-144.47;100.00;61586.06;4902423;29;20352;-82
2023/01/12 10:40:37;;;;;;;;;;;;;;;-144.47;100.00;61586.06;4905880;28;19926;-82
2023/01/12 10:43:18;;;;;;;;;;;;;;;-144.47;100.00;61586.06;4902411;28;19946;-81
2023/01/12 10:45:44;;;;;;;;;;;;;;;-144.47;100.00;61586.06;4906633;28;19958;-83
2023/01/12 10:48:20;;;;;;;;;;;;;;;-144.47;100.00;61586.06;4902802;28;19926;-81
2023/01/12 10:50:55;;;;;;;;;;;;;;;-144.47;100.00;61586.06;4904238;29;20000;-80
2023/01/12 10:53:25;;;;;;;;;;;;;;;-144.47;100.00;61586.06;4905206;29;20294;-80
2023/01/12 10:55:50;;;;;;;;;;;;;;;-144.47;100.00;61586.06;4904392;29;19981;-81
2023/01/12 10:58:21;;;;;;;;;;;;;;;-144.47;100.00;61586.06;4905786;28;19919;-79
2023/01/12 11:00:47;;;;;;;;;;;;;;;-144.47;100.00;61586.06;4906240;28;19926;-81
2023/01/12 11:03:31;;;;;;;;;;;;;;;-144.47;100.00;61586.06;4905895;29;20343;-81
2023/01/12 11:06:13;;;;;;;;;;;;;;;-144.47;100.00;61586.06;4906923;28;19999;-81
2023/01/12 11:08:38;;;;;;;;;;;;;;;-144.47;100.00;61586.06;4908967;29;19919;-81
2023/01/12 11:11:22;;;;;;;;;;;;;;;-144.47;100.00;61586.06;4910606;28;20018;-80
2023/01/12 11:13:51;;;;;;;;;;;;;;;-144.47;100.00;61586.06;4906135;29;19920;-81
2023/01/12 11:16:23;;;;;;;;;;;;;;;-144.47;100.00;61586.06;4907896;29;20313;-81
2023/01/12 11:18:55;;;;;;;;;;;;;;;-144.47;100.00;61586.06;4907082;29;19927;-83
2023/01/12 11:21:23;;;;;;;;;;;;;;;-144.47;100.00;61586.06;4905185;29;20379;-80
2023/01/12 11:24:02;;;;;;;;;;;;;;;-144.47;100.00;61586.06;4905519;28;19927;-81
2023/01/12 11:26:32;;;;;;;;;;;;;;;-144.47;100.00;61586.06;4908228;29;19927;-82
2023/01/12 11:29:01;;;;;;;;;;;;;;;-144.47;100.00;61586.06;4905942;29;20292;-82
2023/01/12 11:31:30;;;;;;;;;;;;;;;-144.47;100.00;61586.06;4908237;28;19919;-82
2023/01/12 11:34:15;;;;;;;;;;;;;;;-144.47;100.00;61586.06;4923919;28;19923;-81
2023/01/12 11:36:42;;;;;;;;;;;;;;;-144.47;100.00;61586.06;4909233;29;20285;-80
2023/01/12 11:39:17;;;;;;;;;;;;;;;-144.47;100.00;61586.06;4912157;29;20347;-81
2023/01/12 11:44:50;;;;;;;;;;;;;;;-144.47;100.00;61586.06;4889085;28;19923;-81
2023/01/12 11:47:34;;;;;;;;;;;;;;;-144.47;100.00;61586.06;4909098;29;20276;-80
2023/01/12 11:50:03;;;;;;;;;;;;;;;-144.47;100.00;61586.06;4909354;28;19927;-81
2023/01/12 11:52:29;;;;;;;;;;;;;;;-144.47;100.00;61586.06;4910682;29;19973;-79
2023/01/12 11:54:54;;;;;;;;;;;;;;;-144.47;100.00;61586.06;4907327;29;19927;-81
2023/01/12 11:57:33;;;;;;;;;;;;;;;-144.47;100.00;61586.06;4910138;28;19923;-80
2023/01/12 11:59:59;;;;;;;;;;;;;;;-144.47;100.00;61586.06;4908264;28;19967;-80
2023/01/12 12:02:33;;;;;;;;;;;;;;;-144.47;100.00;61586.06;4908956;28;19926;-81
2023/01/12 12:05:14;;;;;;;;;;;;;;;-144.47;100.00;61586.06;4922357;28;19919;-80
2023/01/12 12:07:51;;;;;;;;;;;;;;;-144.47;100.00;61586.06;4909381;29;20463;-81
2023/01/12 12:10:29;;;;;;;;;;;;;;;-144.47;100.00;61586.06;4906594;28;19994;-81
2023/01/12 12:13:13;;;;;;;;;;;;;;;-144.47;100.00;61586.06;4905663;29;20287;-81
2023/01/12 12:15:39;;;;;;;;;;;;;;;-144.47;100.00;61586.06;4905516;29;19919;-82
2023/01/12 12:18:14;;;;;;;;;;;;;;;-144.47;100.00;61586.06;4908377;29;20045;-81
2023/01/12 12:21:00;;;;;;;35.40;25.27;;;;;;;-144.47;100.00;61586.06;4922382;29;20271;-80
2023/01/12 12:23:38;;;;;;;;;;;;;;;-144.47;100.00;61586.06;4907302;29;19919;-80
2023/01/12 12:26:03;;;;;;;;;;;;;;;-144.47;100.00;61586.06;4911419;29;20475;-81
2023/01/12 12:28:45;;;;;;;;;;;;;;;-144.47;100.00;61586.06;4909542;28;19963;-81
2023/01/12 12:31:12;;;;;;;;;;;;;;;-144.47;100.00;61586.06;4909243;28;19978;-80
2023/01/12 12:33:37;;;;;;;;;;;;;;;-144.47;100.00;61586.06;4904618;29;19977;-81
2023/01/12 12:36:08;;;;;;;;;;;;;;;-144.47;100.00;61586.06;4918352;28;20383;-81
2023/01/12 12:38:48;;;;;;;;;;;;;;;-144.47;100.00;61586.06;4903774;28;19923;-81